sensor_id;sensor_type;location;lat;lon;timestamp;P1;durP1;ratioP1;P2;durP2;ratioP2
35681;SDS011;21805;51.022;4.782;2023-08-24T00:00:36;14.15;;;5.18;;
35681;SDS011;21805;51.022;4.782;2023-08-24T00:03:07;10.48;;;4.85;;
35681;SDS011;21805;51.022;4.782;2023-08-24T00:10:36;15.50;;;5.82;;
35681;SDS011;21805;51.022;4.782;2023-08-24T00:13:05;8.30;;;4.75;;
35681;SDS011;21805;51.022;4.782;2023-08-24T00:15:33;13.35;;;5.65;;
35681;SDS011;21805;51.022;4.782;2023-08-24T00:17:58;14.30;;;5.53;;
35681;SDS011;21805;51.022;4.782;2023-08-24T00:20:25;12.30;;;5.55;;
35681;SDS011;21805;51.022;4.782;2023-08-24T00:22:52;12.43;;;5.45;;
35681;SDS011;21805;51.022;4.782;2023-08-24T00:25:21;11.13;;;5.25;;
35681;SDS011;21805;51.022;4.782;2023-08-24T00:27:49;14.63;;;6.43;;
35681;SDS011;21805;51.022;4.782;2023-08-24T00:30:15;13.77;;;5.93;;
35681;SDS011;21805;51.022;4.782;2023-08-24T00:32:40;16.65;;;6.32;;
35681;SDS011;21805;51.022;4.782;2023-08-24T00:35:12;15.68;;;5.93;;
35681;SDS011;21805;51.022;4.782;2023-08-24T00:40:08;10.38;;;6.28;;
35681;SDS011;21805;51.022;4.782;2023-08-24T00:45:09;14.13;;;6.45;;
35681;SDS011;21805;51.022;4.782;2023-08-24T00:47:40;14.43;;;6.30;;
35681;SDS011;21805;51.022;4.782;2023-08-24T00:50:14;11.53;;;5.80;;
35681;SDS011;21805;51.022;4.782;2023-08-24T00:57:41;12.45;;;6.10;;
35681;SDS011;21805;51.022;4.782;2023-08-24T01:00:08;10.50;;;5.57;;
35681;SDS011;21805;51.022;4.782;2023-08-24T01:02:38;9.30;;;5.97;;
35681;SDS011;21805;51.022;4.782;2023-08-24T01:05:06;10.95;;;5.90;;
35681;SDS011;21805;51.022;4.782;2023-08-24T01:07:37;16.75;;;5.65;;
35681;SDS011;21805;51.022;4.782;2023-08-24T01:10:11;7.95;;;4.95;;
35681;SDS011;21805;51.022;4.782;2023-08-24T01:20:34;10.88;;;6.60;;
35681;SDS011;21805;51.022;4.782;2023-08-24T01:23:15;12.68;;;6.68;;
35681;SDS011;21805;51.022;4.782;2023-08-24T01:25:53;14.68;;;7.07;;
35681;SDS011;21805;51.022;4.782;2023-08-24T01:31:23;11.60;;;6.95;;
35681;SDS011;21805;51.022;4.782;2023-08-24T01:33:51;10.93;;;7.32;;
35681;SDS011;21805;51.022;4.782;2023-08-24T01:36:18;14.68;;;8.20;;
35681;SDS011;21805;51.022;4.782;2023-08-24T01:38:46;11.23;;;7.03;;
35681;SDS011;21805;51.022;4.782;2023-08-24T01:41:32;13.43;;;6.75;;
35681;SDS011;21805;51.022;4.782;2023-08-24T01:44:09;18.88;;;6.95;;
35681;SDS011;21805;51.022;4.782;2023-08-24T01:49:11;17.60;;;7.22;;
35681;SDS011;21805;51.022;4.782;2023-08-24T01:51:44;13.48;;;7.00;;
35681;SDS011;21805;51.022;4.782;2023-08-24T01:54:13;18.35;;;7.13;;
35681;SDS011;21805;51.022;4.782;2023-08-24T02:01:40;12.52;;;7.20;;
35681;SDS011;21805;51.022;4.782;2023-08-24T02:04:06;18.25;;;7.05;;
35681;SDS011;21805;51.022;4.782;2023-08-24T02:06:32;16.67;;;7.07;;
35681;SDS011;21805;51.022;4.782;2023-08-24T02:08:57;15.80;;;6.93;;
35681;SDS011;21805;51.022;4.782;2023-08-24T02:11:23;12.13;;;7.07;;
35681;SDS011;21805;51.022;4.782;2023-08-24T02:13:52;15.10;;;7.53;;
35681;SDS011;21805;51.022;4.782;2023-08-24T02:16:18;13.68;;;7.13;;
35681;SDS011;21805;51.022;4.782;2023-08-24T02:18:44;15.27;;;8.40;;
35681;SDS011;21805;51.022;4.782;2023-08-24T02:23:41;15.88;;;7.85;;
35681;SDS011;21805;51.022;4.782;2023-08-24T02:26:07;17.90;;;7.45;;
35681;SDS011;21805;51.022;4.782;2023-08-24T02:28:33;16.40;;;7.55;;
35681;SDS011;21805;51.022;4.782;2023-08-24T02:31:03;13.73;;;7.13;;
35681;SDS011;21805;51.022;4.782;2023-08-24T02:36:00;20.10;;;7.93;;
35681;SDS011;21805;51.022;4.782;2023-08-24T02:38:27;15.88;;;6.97;;
35681;SDS011;21805;51.022;4.782;2023-08-24T02:43:33;14.75;;;6.43;;
35681;SDS011;21805;51.022;4.782;2023-08-24T02:46:03;13.27;;;7.55;;
35681;SDS011;21805;51.022;4.782;2023-08-24T02:51:00;16.45;;;7.28;;
35681;SDS011;21805;51.022;4.782;2023-08-24T02:58:26;15.80;;;8.40;;
35681;SDS011;21805;51.022;4.782;2023-08-24T03:00:52;15.27;;;8.65;;
35681;SDS011;21805;51.022;4.782;2023-08-24T03:03:23;20.98;;;9.68;;
35681;SDS011;21805;51.022;4.782;2023-08-24T03:05:57;15.25;;;8.82;;
35681;SDS011;21805;51.022;4.782;2023-08-24T03:08:28;12.95;;;8.43;;
35681;SDS011;21805;51.022;4.782;2023-08-24T03:10:55;13.25;;;7.97;;
35681;SDS011;21805;51.022;4.782;2023-08-24T03:15:52;18.77;;;8.88;;
35681;SDS011;21805;51.022;4.782;2023-08-24T03:20:50;15.20;;;8.55;;
35681;SDS011;21805;51.022;4.782;2023-08-24T03:23:16;15.02;;;9.02;;
35681;SDS011;21805;51.022;4.782;2023-08-24T03:25:43;15.85;;;9.15;;
35681;SDS011;21805;51.022;4.782;2023-08-24T03:28:13;15.48;;;8.50;;
35681;SDS011;21805;51.022;4.782;2023-08-24T03:30:45;16.52;;;8.85;;
35681;SDS011;21805;51.022;4.782;2023-08-24T03:33:21;17.23;;;8.45;;
35681;SDS011;21805;51.022;4.782;2023-08-24T03:35:47;13.07;;;7.50;;
35681;SDS011;21805;51.022;4.782;2023-08-24T03:38:13;13.57;;;7.82;;
35681;SDS011;21805;51.022;4.782;2023-08-24T03:40:39;11.00;;;7.53;;
35681;SDS011;21805;51.022;4.782;2023-08-24T03:43:05;14.50;;;8.00;;
35681;SDS011;21805;51.022;4.782;2023-08-24T03:45:35;15.65;;;8.40;;
35681;SDS011;21805;51.022;4.782;2023-08-24T03:48:01;14.05;;;8.30;;
35681;SDS011;21805;51.022;4.782;2023-08-24T03:50:28;12.82;;;7.82;;
35681;SDS011;21805;51.022;4.782;2023-08-24T03:52:57;15.18;;;8.77;;
35681;SDS011;21805;51.022;4.782;2023-08-24T03:55:24;14.00;;;8.30;;
35681;SDS011;21805;51.022;4.782;2023-08-24T04:00:21;16.08;;;8.68;;
35681;SDS011;21805;51.022;4.782;2023-08-24T04:05:16;16.00;;;8.43;;
35681;SDS011;21805;51.022;4.782;2023-08-24T04:07:45;14.80;;;9.48;;
35681;SDS011;21805;51.022;4.782;2023-08-24T04:10:14;18.38;;;9.00;;
35681;SDS011;21805;51.022;4.782;2023-08-24T04:12:40;11.90;;;8.02;;
35681;SDS011;21805;51.022;4.782;2023-08-24T04:15:06;14.75;;;8.20;;
35681;SDS011;21805;51.022;4.782;2023-08-24T04:17:33;13.68;;;7.80;;
35681;SDS011;21805;51.022;4.782;2023-08-24T04:22:31;14.63;;;8.40;;
35681;SDS011;21805;51.022;4.782;2023-08-24T04:24:58;15.63;;;9.07;;
35681;SDS011;21805;51.022;4.782;2023-08-24T04:27:27;14.35;;;9.20;;
35681;SDS011;21805;51.022;4.782;2023-08-24T04:29:53;15.00;;;9.50;;
35681;SDS011;21805;51.022;4.782;2023-08-24T04:32:19;16.13;;;9.20;;
35681;SDS011;21805;51.022;4.782;2023-08-24T04:34:48;16.77;;;9.48;;
35681;SDS011;21805;51.022;4.782;2023-08-24T04:37:14;14.45;;;9.07;;
35681;SDS011;21805;51.022;4.782;2023-08-24T04:39:41;14.70;;;9.63;;
35681;SDS011;21805;51.022;4.782;2023-08-24T04:42:08;19.58;;;10.15;;
35681;SDS011;21805;51.022;4.782;2023-08-24T04:44:37;18.38;;;10.02;;
35681;SDS011;21805;51.022;4.782;2023-08-24T04:47:03;15.77;;;10.27;;
35681;SDS011;21805;51.022;4.782;2023-08-24T04:49:32;20.58;;;10.15;;
35681;SDS011;21805;51.022;4.782;2023-08-24T04:51:58;14.60;;;10.48;;
35681;SDS011;21805;51.022;4.782;2023-08-24T04:56:55;15.20;;;9.63;;
35681;SDS011;21805;51.022;4.782;2023-08-24T04:59:22;15.88;;;10.07;;
35681;SDS011;21805;51.022;4.782;2023-08-24T05:01:48;15.27;;;9.50;;
35681;SDS011;21805;51.022;4.782;2023-08-24T05:04:14;18.60;;;10.15;;
35681;SDS011;21805;51.022;4.782;2023-08-24T05:06:40;17.77;;;10.80;;
35681;SDS011;21805;51.022;4.782;2023-08-24T05:09:09;16.42;;;9.73;;
35681;SDS011;21805;51.022;4.782;2023-08-24T05:11:36;17.73;;;9.40;;
35681;SDS011;21805;51.022;4.782;2023-08-24T05:14:02;23.05;;;9.98;;
35681;SDS011;21805;51.022;4.782;2023-08-24T05:16:31;16.58;;;10.20;;
35681;SDS011;21805;51.022;4.782;2023-08-24T05:18:57;16.13;;;10.32;;
35681;SDS011;21805;51.022;4.782;2023-08-24T05:21:26;16.73;;;8.57;;
35681;SDS011;21805;51.022;4.782;2023-08-24T05:23:53;13.52;;;8.35;;
35681;SDS011;21805;51.022;4.782;2023-08-24T05:26:22;15.20;;;9.02;;
35681;SDS011;21805;51.022;4.782;2023-08-24T05:31:21;14.35;;;8.57;;
35681;SDS011;21805;51.022;4.782;2023-08-24T05:33:50;20.45;;;8.90;;
35681;SDS011;21805;51.022;4.782;2023-08-24T05:36:17;18.75;;;10.27;;
35681;SDS011;21805;51.022;4.782;2023-08-24T05:38:45;19.75;;;9.77;;
35681;SDS011;21805;51.022;4.782;2023-08-24T05:41:16;18.65;;;10.18;;
35681;SDS011;21805;51.022;4.782;2023-08-24T05:46:17;15.25;;;9.70;;
35681;SDS011;21805;51.022;4.782;2023-08-24T05:48:46;23.40;;;10.63;;
35681;SDS011;21805;51.022;4.782;2023-08-24T05:53:41;14.82;;;8.43;;
35681;SDS011;21805;51.022;4.782;2023-08-24T05:56:10;19.73;;;10.00;;
35681;SDS011;21805;51.022;4.782;2023-08-24T05:58:35;18.08;;;10.05;;
35681;SDS011;21805;51.022;4.782;2023-08-24T06:01:01;15.93;;;9.10;;
35681;SDS011;21805;51.022;4.782;2023-08-24T06:03:27;16.20;;;9.18;;
35681;SDS011;21805;51.022;4.782;2023-08-24T06:05:53;17.02;;;9.45;;
35681;SDS011;21805;51.022;4.782;2023-08-24T06:08:19;15.00;;;9.55;;
35681;SDS011;21805;51.022;4.782;2023-08-24T06:10:45;23.10;;;9.00;;
35681;SDS011;21805;51.022;4.782;2023-08-24T06:13:13;14.68;;;9.02;;
35681;SDS011;21805;51.022;4.782;2023-08-24T06:15:39;21.27;;;9.25;;
35681;SDS011;21805;51.022;4.782;2023-08-24T06:18:06;16.75;;;9.13;;
35681;SDS011;21805;51.022;4.782;2023-08-24T06:20:34;18.75;;;9.55;;
35681;SDS011;21805;51.022;4.782;2023-08-24T06:23:01;16.40;;;8.93;;
35681;SDS011;21805;51.022;4.782;2023-08-24T06:25:29;14.82;;;8.23;;
35681;SDS011;21805;51.022;4.782;2023-08-24T06:27:56;24.05;;;8.57;;
35681;SDS011;21805;51.022;4.782;2023-08-24T06:30:24;16.02;;;9.98;;
35681;SDS011;21805;51.022;4.782;2023-08-24T06:32:53;14.63;;;8.65;;
35681;SDS011;21805;51.022;4.782;2023-08-24T06:35:32;17.92;;;9.60;;
35681;SDS011;21805;51.022;4.782;2023-08-24T06:38:56;19.02;;;9.20;;
35681;SDS011;21805;51.022;4.782;2023-08-24T06:41:42;19.45;;;8.50;;
35681;SDS011;21805;51.022;4.782;2023-08-24T07:00:31;20.10;;;7.57;;
35681;SDS011;21805;51.022;4.782;2023-08-24T07:02:59;14.88;;;8.50;;
35681;SDS011;21805;51.022;4.782;2023-08-24T07:05:29;15.00;;;8.70;;
35681;SDS011;21805;51.022;4.782;2023-08-24T07:10:26;15.52;;;7.90;;
35681;SDS011;21805;51.022;4.782;2023-08-24T07:59:12;16.80;;;6.40;;
35681;SDS011;21805;51.022;4.782;2023-08-24T08:01:38;10.50;;;5.55;;
35681;SDS011;21805;51.022;4.782;2023-08-24T08:06:32;12.30;;;5.65;;
35681;SDS011;21805;51.022;4.782;2023-08-24T08:11:31;15.63;;;5.90;;
35681;SDS011;21805;51.022;4.782;2023-08-24T08:16:27;10.48;;;5.60;;
35681;SDS011;21805;51.022;4.782;2023-08-24T08:18:53;11.13;;;5.50;;
35681;SDS011;21805;51.022;4.782;2023-08-24T08:21:19;13.80;;;5.53;;
35681;SDS011;21805;51.022;4.782;2023-08-24T08:23:45;9.18;;;5.00;;
35681;SDS011;21805;51.022;4.782;2023-08-24T08:26:11;9.77;;;5.15;;
35681;SDS011;21805;51.022;4.782;2023-08-24T08:28:39;12.75;;;5.55;;
35681;SDS011;21805;51.022;4.782;2023-08-24T08:31:05;12.60;;;6.10;;
35681;SDS011;21805;51.022;4.782;2023-08-24T08:33:31;10.60;;;5.78;;
35681;SDS011;21805;51.022;4.782;2023-08-24T08:35:58;11.77;;;5.68;;
35681;SDS011;21805;51.022;4.782;2023-08-24T08:38:24;11.93;;;6.22;;
35681;SDS011;21805;51.022;4.782;2023-08-24T08:40:56;18.15;;;6.25;;
35681;SDS011;21805;51.022;4.782;2023-08-24T08:43:28;12.20;;;6.05;;
35681;SDS011;21805;51.022;4.782;2023-08-24T08:45:55;14.27;;;5.47;;
35681;SDS011;21805;51.022;4.782;2023-08-24T08:48:21;17.60;;;5.57;;
35681;SDS011;21805;51.022;4.782;2023-08-24T08:50:48;11.52;;;6.20;;
35681;SDS011;21805;51.022;4.782;2023-08-24T08:53:15;16.23;;;6.13;;
35681;SDS011;21805;51.022;4.782;2023-08-24T08:55:41;12.07;;;6.03;;
35681;SDS011;21805;51.022;4.782;2023-08-24T08:58:07;15.20;;;6.13;;
35681;SDS011;21805;51.022;4.782;2023-08-24T09:00:35;14.93;;;6.28;;
35681;SDS011;21805;51.022;4.782;2023-08-24T09:03:04;12.35;;;6.22;;
35681;SDS011;21805;51.022;4.782;2023-08-24T09:05:30;11.95;;;5.65;;
35681;SDS011;21805;51.022;4.782;2023-08-24T09:07:57;11.88;;;5.95;;
35681;SDS011;21805;51.022;4.782;2023-08-24T09:10:24;27.63;;;6.95;;
35681;SDS011;21805;51.022;4.782;2023-08-24T09:12:50;10.90;;;5.25;;
35681;SDS011;21805;51.022;4.782;2023-08-24T09:15:37;8.75;;;5.20;;
35681;SDS011;21805;51.022;4.782;2023-08-24T09:18:02;14.85;;;5.57;;
35681;SDS011;21805;51.022;4.782;2023-08-24T09:20:28;12.60;;;5.53;;
35681;SDS011;21805;51.022;4.782;2023-08-24T09:22:54;16.63;;;5.13;;
35681;SDS011;21805;51.022;4.782;2023-08-24T09:25:22;8.30;;;4.57;;
35681;SDS011;21805;51.022;4.782;2023-08-24T09:28:01;8.13;;;4.78;;
35681;SDS011;21805;51.022;4.782;2023-08-24T09:30:37;9.13;;;4.63;;
35681;SDS011;21805;51.022;4.782;2023-08-24T09:33:09;9.93;;;4.78;;
35681;SDS011;21805;51.022;4.782;2023-08-24T09:35:36;9.60;;;4.55;;
35681;SDS011;21805;51.022;4.782;2023-08-24T09:38:23;11.13;;;5.07;;
35681;SDS011;21805;51.022;4.782;2023-08-24T09:40:52;10.10;;;4.90;;
35681;SDS011;21805;51.022;4.782;2023-08-24T09:43:19;11.20;;;4.70;;
35681;SDS011;21805;51.022;4.782;2023-08-24T09:45:56;9.52;;;4.38;;
35681;SDS011;21805;51.022;4.782;2023-08-24T09:48:22;13.48;;;4.78;;
35681;SDS011;21805;51.022;4.782;2023-08-24T09:50:52;9.23;;;4.68;;
35681;SDS011;21805;51.022;4.782;2023-08-24T09:53:19;10.25;;;4.68;;
35681;SDS011;21805;51.022;4.782;2023-08-24T09:55:59;10.70;;;4.18;;
35681;SDS011;21805;51.022;4.782;2023-08-24T09:58:26;10.45;;;5.43;;
35681;SDS011;21805;51.022;4.782;2023-08-24T10:01:12;10.15;;;4.50;;
35681;SDS011;21805;51.022;4.782;2023-08-24T10:03:40;16.13;;;5.07;;
35681;SDS011;21805;51.022;4.782;2023-08-24T10:06:06;8.65;;;4.25;;
35681;SDS011;21805;51.022;4.782;2023-08-24T10:11:42;13.02;;;5.30;;
35681;SDS011;21805;51.022;4.782;2023-08-24T10:14:19;12.38;;;5.70;;
35681;SDS011;21805;51.022;4.782;2023-08-24T10:19:13;11.73;;;5.30;;
35681;SDS011;21805;51.022;4.782;2023-08-24T10:21:40;9.88;;;5.47;;
35681;SDS011;21805;51.022;4.782;2023-08-24T10:24:08;11.75;;;5.18;;
35681;SDS011;21805;51.022;4.782;2023-08-24T10:26:36;10.93;;;5.25;;
35681;SDS011;21805;51.022;4.782;2023-08-24T10:31:48;13.70;;;5.50;;
35681;SDS011;21805;51.022;4.782;2023-08-24T10:34:15;19.52;;;5.97;;
35681;SDS011;21805;51.022;4.782;2023-08-24T10:36:41;10.13;;;5.43;;
35681;SDS011;21805;51.022;4.782;2023-08-24T10:39:07;9.20;;;5.40;;
35681;SDS011;21805;51.022;4.782;2023-08-24T10:41:47;13.27;;;5.35;;
35681;SDS011;21805;51.022;4.782;2023-08-24T10:44:21;10.75;;;5.55;;
35681;SDS011;21805;51.022;4.782;2023-08-24T10:49:33;11.13;;;5.45;;
35681;SDS011;21805;51.022;4.782;2023-08-24T10:52:16;13.25;;;5.90;;
35681;SDS011;21805;51.022;4.782;2023-08-24T10:54:43;11.15;;;5.28;;
35681;SDS011;21805;51.022;4.782;2023-08-24T10:57:17;13.13;;;5.15;;
35681;SDS011;21805;51.022;4.782;2023-08-24T10:59:57;16.92;;;5.63;;
35681;SDS011;21805;51.022;4.782;2023-08-24T11:02:24;9.90;;;5.18;;
35681;SDS011;21805;51.022;4.782;2023-08-24T11:07:47;9.77;;;4.97;;
35681;SDS011;21805;51.022;4.782;2023-08-24T11:10:16;14.23;;;5.15;;
35681;SDS011;21805;51.022;4.782;2023-08-24T11:13:25;16.83;;;5.88;;
35681;SDS011;21805;51.022;4.782;2023-08-24T11:18:13;14.30;;;5.40;;
35681;SDS011;21805;51.022;4.782;2023-08-24T11:20:43;10.95;;;5.10;;
35681;SDS011;21805;51.022;4.782;2023-08-24T11:23:14;13.23;;;5.25;;
35681;SDS011;21805;51.022;4.782;2023-08-24T11:25:40;15.60;;;5.43;;
35681;SDS011;21805;51.022;4.782;2023-08-24T11:28:06;16.95;;;5.47;;
35681;SDS011;21805;51.022;4.782;2023-08-24T11:30:32;8.73;;;4.72;;
35681;SDS011;21805;51.022;4.782;2023-08-24T11:32:59;9.07;;;4.25;;
35681;SDS011;21805;51.022;4.782;2023-08-24T11:35:26;9.57;;;4.45;;
35681;SDS011;21805;51.022;4.782;2023-08-24T11:37:52;12.60;;;5.03;;
35681;SDS011;21805;51.022;4.782;2023-08-24T11:40:18;12.13;;;4.90;;
35681;SDS011;21805;51.022;4.782;2023-08-24T11:42:54;12.50;;;4.80;;
35681;SDS011;21805;51.022;4.782;2023-08-24T11:45:22;9.32;;;4.45;;
35681;SDS011;21805;51.022;4.782;2023-08-24T11:47:49;10.80;;;4.50;;
35681;SDS011;21805;51.022;4.782;2023-08-24T11:50:16;8.73;;;4.43;;
35681;SDS011;21805;51.022;4.782;2023-08-24T11:52:43;10.02;;;4.50;;
35681;SDS011;21805;51.022;4.782;2023-08-24T11:55:09;6.13;;;4.00;;
35681;SDS011;21805;51.022;4.782;2023-08-24T11:57:38;10.55;;;4.03;;
35681;SDS011;21805;51.022;4.782;2023-08-24T12:00:04;11.57;;;4.20;;
35681;SDS011;21805;51.022;4.782;2023-08-24T12:02:31;7.70;;;3.80;;
35681;SDS011;21805;51.022;4.782;2023-08-24T12:04:58;8.07;;;3.97;;
35681;SDS011;21805;51.022;4.782;2023-08-24T12:07:24;8.52;;;4.05;;
35681;SDS011;21805;51.022;4.782;2023-08-24T12:09:54;9.15;;;3.97;;
35681;SDS011;21805;51.022;4.782;2023-08-24T12:12:20;7.22;;;3.78;;
35681;SDS011;21805;51.022;4.782;2023-08-24T12:14:48;10.65;;;4.10;;
35681;SDS011;21805;51.022;4.782;2023-08-24T12:17:15;8.80;;;3.80;;
35681;SDS011;21805;51.022;4.782;2023-08-24T12:19:44;9.32;;;4.15;;
35681;SDS011;21805;51.022;4.782;2023-08-24T12:22:20;12.75;;;4.35;;
35681;SDS011;21805;51.022;4.782;2023-08-24T12:24:47;6.18;;;3.38;;
35681;SDS011;21805;51.022;4.782;2023-08-24T12:27:19;11.18;;;4.45;;
35681;SDS011;21805;51.022;4.782;2023-08-24T12:29:47;6.72;;;3.83;;
35681;SDS011;21805;51.022;4.782;2023-08-24T12:32:13;9.38;;;4.38;;
35681;SDS011;21805;51.022;4.782;2023-08-24T12:34:41;10.68;;;4.38;;
35681;SDS011;21805;51.022;4.782;2023-08-24T12:37:10;10.38;;;4.20;;
35681;SDS011;21805;51.022;4.782;2023-08-24T12:39:36;9.15;;;4.43;;
35681;SDS011;21805;51.022;4.782;2023-08-24T12:42:04;8.63;;;4.53;;
35681;SDS011;21805;51.022;4.782;2023-08-24T12:44:33;10.02;;;4.72;;
35681;SDS011;21805;51.022;4.782;2023-08-24T12:46:59;14.65;;;5.15;;
35681;SDS011;21805;51.022;4.782;2023-08-24T12:49:25;13.45;;;5.20;;
35681;SDS011;21805;51.022;4.782;2023-08-24T12:51:50;8.18;;;4.63;;
35681;SDS011;21805;51.022;4.782;2023-08-24T12:54:16;14.32;;;5.68;;
35681;SDS011;21805;51.022;4.782;2023-08-24T12:56:42;11.43;;;5.75;;
35681;SDS011;21805;51.022;4.782;2023-08-24T12:59:09;8.77;;;4.93;;
35681;SDS011;21805;51.022;4.782;2023-08-24T13:01:35;11.80;;;5.25;;
35681;SDS011;21805;51.022;4.782;2023-08-24T13:04:00;9.35;;;4.72;;
35681;SDS011;21805;51.022;4.782;2023-08-24T13:06:26;11.10;;;4.80;;
35681;SDS011;21805;51.022;4.782;2023-08-24T13:08:52;10.95;;;4.55;;
35681;SDS011;21805;51.022;4.782;2023-08-24T13:11:18;8.75;;;4.80;;
35681;SDS011;21805;51.022;4.782;2023-08-24T13:13:44;7.00;;;4.20;;
35681;SDS011;21805;51.022;4.782;2023-08-24T13:16:13;11.65;;;4.35;;
35681;SDS011;21805;51.022;4.782;2023-08-24T13:18:39;7.53;;;4.10;;
35681;SDS011;21805;51.022;4.782;2023-08-24T13:21:05;7.65;;;3.90;;
35681;SDS011;21805;51.022;4.782;2023-08-24T13:23:31;7.38;;;3.70;;
35681;SDS011;21805;51.022;4.782;2023-08-24T13:26:00;9.55;;;3.88;;
35681;SDS011;21805;51.022;4.782;2023-08-24T13:28:26;7.25;;;3.78;;
35681;SDS011;21805;51.022;4.782;2023-08-24T13:30:52;7.53;;;4.00;;
35681;SDS011;21805;51.022;4.782;2023-08-24T13:33:18;7.65;;;3.53;;
35681;SDS011;21805;51.022;4.782;2023-08-24T13:35:44;7.82;;;3.75;;
35681;SDS011;21805;51.022;4.782;2023-08-24T13:38:14;8.68;;;3.90;;
35681;SDS011;21805;51.022;4.782;2023-08-24T13:43:12;6.60;;;2.83;;
35681;SDS011;21805;51.022;4.782;2023-08-24T13:45:38;6.70;;;3.10;;
35681;SDS011;21805;51.022;4.782;2023-08-24T13:48:19;5.30;;;3.08;;
35681;SDS011;21805;51.022;4.782;2023-08-24T13:50:56;5.23;;;2.50;;
35681;SDS011;21805;51.022;4.782;2023-08-24T13:53:24;5.45;;;2.70;;
35681;SDS011;21805;51.022;4.782;2023-08-24T13:58:22;7.28;;;2.75;;
35681;SDS011;21805;51.022;4.782;2023-08-24T14:00:54;8.85;;;2.85;;
35681;SDS011;21805;51.022;4.782;2023-08-24T14:06:00;6.32;;;2.55;;
35681;SDS011;21805;51.022;4.782;2023-08-24T14:08:26;8.85;;;2.50;;
35681;SDS011;21805;51.022;4.782;2023-08-24T14:13:21;5.70;;;2.38;;
35681;SDS011;21805;51.022;4.782;2023-08-24T14:16:00;11.57;;;2.47;;
35681;SDS011;21805;51.022;4.782;2023-08-24T14:18:27;6.40;;;2.70;;
35681;SDS011;21805;51.022;4.782;2023-08-24T14:20:55;6.50;;;2.10;;
35681;SDS011;21805;51.022;4.782;2023-08-24T14:23:20;5.88;;;2.20;;
35681;SDS011;21805;51.022;4.782;2023-08-24T14:25:46;5.18;;;2.25;;
35681;SDS011;21805;51.022;4.782;2023-08-24T14:28:18;8.75;;;2.00;;
35681;SDS011;21805;51.022;4.782;2023-08-24T14:30:46;5.38;;;2.40;;
35681;SDS011;21805;51.022;4.782;2023-08-24T14:33:13;4.72;;;2.25;;
35681;SDS011;21805;51.022;4.782;2023-08-24T14:35:39;6.78;;;2.20;;
35681;SDS011;21805;51.022;4.782;2023-08-24T14:38:05;7.45;;;2.67;;
35681;SDS011;21805;51.022;4.782;2023-08-24T14:40:33;6.55;;;2.53;;
35681;SDS011;21805;51.022;4.782;2023-08-24T14:42:59;4.93;;;2.22;;
35681;SDS011;21805;51.022;4.782;2023-08-24T14:45:28;8.15;;;2.50;;
35681;SDS011;21805;51.022;4.782;2023-08-24T14:48:00;7.45;;;2.22;;
35681;SDS011;21805;51.022;4.782;2023-08-24T14:50:30;4.68;;;2.28;;
35681;SDS011;21805;51.022;4.782;2023-08-24T14:52:56;5.82;;;2.40;;
35681;SDS011;21805;51.022;4.782;2023-08-24T14:55:23;5.85;;;2.10;;
35681;SDS011;21805;51.022;4.782;2023-08-24T14:57:49;5.93;;;2.00;;
35681;SDS011;21805;51.022;4.782;2023-08-24T15:00:19;13.38;;;2.20;;
35681;SDS011;21805;51.022;4.782;2023-08-24T15:02:55;5.05;;;1.90;;
35681;SDS011;21805;51.022;4.782;2023-08-24T15:05:21;8.45;;;2.00;;
35681;SDS011;21805;51.022;4.782;2023-08-24T15:10:17;8.68;;;2.03;;
35681;SDS011;21805;51.022;4.782;2023-08-24T15:12:45;6.35;;;2.10;;
35681;SDS011;21805;51.022;4.782;2023-08-24T15:15:16;6.05;;;1.90;;
35681;SDS011;21805;51.022;4.782;2023-08-24T15:17:43;8.00;;;2.03;;
35681;SDS011;21805;51.022;4.782;2023-08-24T15:20:14;5.28;;;1.80;;
35681;SDS011;21805;51.022;4.782;2023-08-24T15:22:40;6.03;;;1.90;;
35681;SDS011;21805;51.022;4.782;2023-08-24T15:25:09;7.65;;;2.05;;
35681;SDS011;21805;51.022;4.782;2023-08-24T15:27:37;4.75;;;1.75;;
35681;SDS011;21805;51.022;4.782;2023-08-24T15:30:03;4.78;;;1.65;;
35681;SDS011;21805;51.022;4.782;2023-08-24T15:32:30;4.97;;;1.60;;
35681;SDS011;21805;51.022;4.782;2023-08-24T15:37:29;4.85;;;1.80;;
35681;SDS011;21805;51.022;4.782;2023-08-24T15:39:57;5.25;;;1.90;;
35681;SDS011;21805;51.022;4.782;2023-08-24T15:42:27;5.80;;;1.73;;
35681;SDS011;21805;51.022;4.782;2023-08-24T15:44:52;11.55;;;1.80;;
35681;SDS011;21805;51.022;4.782;2023-08-24T15:47:21;6.05;;;1.77;;
35681;SDS011;21805;51.022;4.782;2023-08-24T15:49:49;5.07;;;1.60;;
35681;SDS011;21805;51.022;4.782;2023-08-24T15:52:16;4.13;;;1.77;;
35681;SDS011;21805;51.022;4.782;2023-08-24T15:54:45;4.95;;;1.90;;
35681;SDS011;21805;51.022;4.782;2023-08-24T15:57:14;7.88;;;2.20;;
35681;SDS011;21805;51.022;4.782;2023-08-24T15:59:42;4.20;;;1.67;;
35681;SDS011;21805;51.022;4.782;2023-08-24T16:02:14;6.13;;;2.22;;
35681;SDS011;21805;51.022;4.782;2023-08-24T16:07:13;4.35;;;1.70;;
35681;SDS011;21805;51.022;4.782;2023-08-24T16:09:39;3.67;;;1.80;;
35681;SDS011;21805;51.022;4.782;2023-08-24T16:12:05;3.25;;;1.70;;
35681;SDS011;21805;51.022;4.782;2023-08-24T16:14:45;4.45;;;1.55;;
35681;SDS011;21805;51.022;4.782;2023-08-24T16:19:41;4.35;;;1.65;;
35681;SDS011;21805;51.022;4.782;2023-08-24T16:28:04;5.13;;;1.95;;
35681;SDS011;21805;51.022;4.782;2023-08-24T16:33:36;5.95;;;1.65;;
35681;SDS011;21805;51.022;4.782;2023-08-24T16:36:20;2.25;;;1.48;;
35681;SDS011;21805;51.022;4.782;2023-08-24T16:38:59;4.68;;;1.40;;
35681;SDS011;21805;51.022;4.782;2023-08-24T16:41:33;3.03;;;1.50;;
35681;SDS011;21805;51.022;4.782;2023-08-24T16:44:04;2.92;;;1.35;;
35681;SDS011;21805;51.022;4.782;2023-08-24T16:46:30;3.67;;;1.50;;
35681;SDS011;21805;51.022;4.782;2023-08-24T16:49:04;6.57;;;1.70;;
35681;SDS011;21805;51.022;4.782;2023-08-24T16:51:31;5.65;;;1.92;;
35681;SDS011;21805;51.022;4.782;2023-08-24T16:53:58;3.53;;;1.40;;
35681;SDS011;21805;51.022;4.782;2023-08-24T17:02:45;7.90;;;2.17;;
35681;SDS011;21805;51.022;4.782;2023-08-24T17:05:14;5.90;;;1.83;;
35681;SDS011;21805;51.022;4.782;2023-08-24T17:07:41;2.67;;;1.60;;
35681;SDS011;21805;51.022;4.782;2023-08-24T17:10:25;7.13;;;1.80;;
35681;SDS011;21805;51.022;4.782;2023-08-24T17:16:13;3.40;;;1.55;;
35681;SDS011;21805;51.022;4.782;2023-08-24T17:33:54;5.72;;;1.50;;
35681;SDS011;21805;51.022;4.782;2023-08-24T17:36:20;3.42;;;1.70;;
35681;SDS011;21805;51.022;4.782;2023-08-24T17:41:47;2.97;;;1.50;;
35681;SDS011;21805;51.022;4.782;2023-08-24T17:44:13;4.43;;;1.42;;
35681;SDS011;21805;51.022;4.782;2023-08-24T17:46:39;25.33;;;7.13;;
35681;SDS011;21805;51.022;4.782;2023-08-24T17:49:05;6.53;;;1.95;;
35681;SDS011;21805;51.022;4.782;2023-08-24T17:51:33;12.93;;;4.78;;
35681;SDS011;21805;51.022;4.782;2023-08-24T17:54:11;14.52;;;5.32;;
35681;SDS011;21805;51.022;4.782;2023-08-24T18:11:03;21.67;;;8.23;;
35681;SDS011;21805;51.022;4.782;2023-08-24T18:13:32;18.73;;;6.07;;
35681;SDS011;21805;51.022;4.782;2023-08-24T18:16:14;12.68;;;4.78;;
35681;SDS011;21805;51.022;4.782;2023-08-24T18:18:42;7.38;;;2.88;;
35681;SDS011;21805;51.022;4.782;2023-08-24T18:23:57;5.75;;;1.75;;
35681;SDS011;21805;51.022;4.782;2023-08-24T18:26:29;3.42;;;1.80;;
35681;SDS011;21805;51.022;4.782;2023-08-24T18:31:34;3.05;;;1.70;;
35681;SDS011;21805;51.022;4.782;2023-08-24T18:34:05;4.30;;;1.70;;
35681;SDS011;21805;51.022;4.782;2023-08-24T18:36:32;4.10;;;1.70;;
35681;SDS011;21805;51.022;4.782;2023-08-24T18:39:01;5.38;;;2.05;;
35681;SDS011;21805;51.022;4.782;2023-08-24T20:00:01;2.88;;;2.30;;
35681;SDS011;21805;51.022;4.782;2023-08-24T20:05:01;6.30;;;2.38;;